KPAE/PAE METAR and TAF weather

Enter ICAO airport designator
Station Type Date Time Source
KPAE METAR 2022/10/01 06:53 UTC NOAA

KPAE 010653Z AUTO 35003KT 10SM CLR 13/11 A3010 RMK AO2 SLP193 T01280106


Station Type Date Time Source
KPAE Decoded METAR 2022/10/01 06:53 UTC NOAA

EVERETT SNOHOMISH COUNTY, WA, United States (KPAE) 47-55N 122-17W 180M
Oct 01, 2022 - 02:53 AM EDT / 2022.10.01 0653 UTC
Wind: from the N (350 degrees) at 3 MPH (3 KT):0
Visibility: 10 mile(s):0
Sky conditions: clear
Temperature: 55.0 F (12.8 C)
Dew Point: 51.1 F (10.6 C)
Relative Humidity: 86%
Pressure (altimeter): 30.1 in. Hg (1019 hPa)
ob: KPAE 010653Z AUTO 35003KT 10SM CLR 13/11 A3010 RMK AO2 SLP193 T01280106
cycle: 7

Station Type Date Time Source
KPAE TAF 2022/10/01 06:39 UTC NOAA

TAF KPAE 010536Z 0106/0206 00000KT P6SM SKC
FM010900 01004KT P6SM SKC
FM011400 VRB03KT 6SM BCFG SKC

Example: see airport list